sensor_id;sensor_type;location;lat;lon;timestamp;pressure;altitude;pressure_sealevel;temperature;humidity
28448;BME280;15675;52.870;-1.416;2023-04-21T00:02:02;101444.78;;;8.58;100.00
28448;BME280;15675;52.870;-1.416;2023-04-21T00:04:27;101419.59;;;8.51;100.00
28448;BME280;15675;52.870;-1.416;2023-04-21T00:06:53;101430.72;;;8.85;100.00
28448;BME280;15675;52.870;-1.416;2023-04-21T00:09:20;101437.19;;;8.66;100.00
28448;BME280;15675;52.870;-1.416;2023-04-21T00:11:46;101434.97;;;8.81;100.00
28448;BME280;15675;52.870;-1.416;2023-04-21T00:14:11;101423.13;;;8.92;100.00
28448;BME280;15675;52.870;-1.416;2023-04-21T00:16:37;101423.13;;;8.92;100.00
28448;BME280;15675;52.870;-1.416;2023-04-21T00:19:02;101424.88;;;8.95;100.00
28448;BME280;15675;52.870;-1.416;2023-04-21T00:21:34;101418.22;;;8.65;100.00
28448;BME280;15675;52.870;-1.416;2023-04-21T00:24:00;101410.16;;;8.91;100.00
28448;BME280;15675;52.870;-1.416;2023-04-21T00:26:26;101402.00;;;8.72;100.00
28448;BME280;15675;52.870;-1.416;2023-04-21T00:28:51;101414.47;;;8.92;100.00
28448;BME280;15675;52.870;-1.416;2023-04-21T00:31:17;101412.81;;;8.94;100.00
28448;BME280;15675;52.870;-1.416;2023-04-21T00:33:42;101409.81;;;8.75;100.00
28448;BME280;15675;52.870;-1.416;2023-04-21T00:36:08;101398.78;;;8.84;100.00
28448;BME280;15675;52.870;-1.416;2023-04-21T00:38:33;101394.25;;;8.74;100.00
28448;BME280;15675;52.870;-1.416;2023-04-21T00:40:59;101396.06;;;8.78;100.00
28448;BME280;15675;52.870;-1.416;2023-04-21T00:43:24;101397.44;;;8.63;100.00
28448;BME280;15675;52.870;-1.416;2023-04-21T00:45:50;101395.88;;;8.70;100.00
28448;BME280;15675;52.870;-1.416;2023-04-21T00:48:16;101386.22;;;8.61;100.00
28448;BME280;15675;52.870;-1.416;2023-04-21T00:50:42;101398.56;;;8.75;100.00
28448;BME280;15675;52.870;-1.416;2023-04-21T00:53:09;101400.31;;;9.17;100.00
28448;BME280;15675;52.870;-1.416;2023-04-21T00:55:35;101391.03;;;8.86;100.00
28448;BME280;15675;52.870;-1.416;2023-04-21T00:58:02;101395.56;;;8.96;100.00
28448;BME280;15675;52.870;-1.416;2023-04-21T01:00:28;101385.78;;;8.81;100.00
28448;BME280;15675;52.870;-1.416;2023-04-21T01:02:54;101392.97;;;8.96;100.00
28448;BME280;15675;52.870;-1.416;2023-04-21T01:05:20;101390.44;;;8.99;100.00
28448;BME280;15675;52.870;-1.416;2023-04-21T01:07:46;101383.63;;;9.03;100.00
28448;BME280;15675;52.870;-1.416;2023-04-21T01:10:11;101383.78;;;9.10;100.00
28448;BME280;15675;52.870;-1.416;2023-04-21T01:12:42;101373.56;;;9.17;100.00
28448;BME280;15675;52.870;-1.416;2023-04-21T01:15:08;101380.94;;;8.96;100.00
28448;BME280;15675;52.870;-1.416;2023-04-21T01:17:34;101371.59;;;9.06;100.00
28448;BME280;15675;52.870;-1.416;2023-04-21T01:20:07;101367.91;;;8.95;100.00
28448;BME280;15675;52.870;-1.416;2023-04-21T01:22:36;101374.56;;;8.82;100.00
28448;BME280;15675;52.870;-1.416;2023-04-21T01:25:02;101364.28;;;8.85;100.00
28448;BME280;15675;52.870;-1.416;2023-04-21T01:27:28;101368.75;;;8.92;100.00
28448;BME280;15675;52.870;-1.416;2023-04-21T01:29:53;101355.56;;;8.81;100.00
28448;BME280;15675;52.870;-1.416;2023-04-21T01:32:22;101359.09;;;8.84;100.00
28448;BME280;15675;52.870;-1.416;2023-04-21T01:34:48;101338.25;;;8.79;100.00
28448;BME280;15675;52.870;-1.416;2023-04-21T01:37:18;101361.22;;;8.63;100.00
28448;BME280;15675;52.870;-1.416;2023-04-21T01:39:47;101342.66;;;8.83;100.00
28448;BME280;15675;52.870;-1.416;2023-04-21T01:42:17;101342.50;;;8.74;100.00
28448;BME280;15675;52.870;-1.416;2023-04-21T01:44:43;101348.72;;;8.84;100.00
28448;BME280;15675;52.870;-1.416;2023-04-21T01:47:11;101348.56;;;8.76;100.00
28448;BME280;15675;52.870;-1.416;2023-04-21T01:49:37;101335.47;;;9.11;100.00
28448;BME280;15675;52.870;-1.416;2023-04-21T01:52:03;101331.91;;;9.06;100.00
28448;BME280;15675;52.870;-1.416;2023-04-21T01:54:29;101328.63;;;9.16;100.00
28448;BME280;15675;52.870;-1.416;2023-04-21T01:56:54;101329.69;;;9.26;100.00
28448;BME280;15675;52.870;-1.416;2023-04-21T01:59:20;101329.53;;;8.74;100.00
28448;BME280;15675;52.870;-1.416;2023-04-21T02:01:46;101326.22;;;8.79;100.00
28448;BME280;15675;52.870;-1.416;2023-04-21T02:04:12;101312.34;;;8.77;100.00
28448;BME280;15675;52.870;-1.416;2023-04-21T02:06:37;101317.81;;;8.91;100.00
28448;BME280;15675;52.870;-1.416;2023-04-21T02:09:03;101317.56;;;8.79;100.00
28448;BME280;15675;52.870;-1.416;2023-04-21T02:11:28;101314.06;;;8.77;100.00
28448;BME280;15675;52.870;-1.416;2023-04-21T02:13:55;101311.88;;;8.97;100.00
28448;BME280;15675;52.870;-1.416;2023-04-21T02:16:21;101308.84;;;8.74;100.00
28448;BME280;15675;52.870;-1.416;2023-04-21T02:18:54;101309.25;;;8.95;100.00
28448;BME280;15675;52.870;-1.416;2023-04-21T02:21:22;101309.91;;;8.84;100.00
28448;BME280;15675;52.870;-1.416;2023-04-21T02:23:48;101315.75;;;9.19;100.00
28448;BME280;15675;52.870;-1.416;2023-04-21T02:26:13;101306.84;;;9.05;100.00
28448;BME280;15675;52.870;-1.416;2023-04-21T02:28:39;101305.84;;;8.96;100.00
28448;BME280;15675;52.870;-1.416;2023-04-21T02:31:05;101295.25;;;8.86;100.00
28448;BME280;15675;52.870;-1.416;2023-04-21T02:33:30;101296.47;;;9.05;100.00
28448;BME280;15675;52.870;-1.416;2023-04-21T02:35:56;101292.31;;;9.11;100.00
28448;BME280;15675;52.870;-1.416;2023-04-21T02:38:21;101295.41;;;8.95;100.00
28448;BME280;15675;52.870;-1.416;2023-04-21T02:40:47;101291.38;;;9.08;100.00
28448;BME280;15675;52.870;-1.416;2023-04-21T02:43:13;101286.84;;;8.97;100.00
28448;BME280;15675;52.870;-1.416;2023-04-21T02:45:38;101280.63;;;8.88;100.00
28448;BME280;15675;52.870;-1.416;2023-04-21T02:48:04;101291.69;;;8.80;100.00
28448;BME280;15675;52.870;-1.416;2023-04-21T02:50:30;101287.03;;;9.07;100.00
28448;BME280;15675;52.870;-1.416;2023-04-21T02:52:55;101280.19;;;9.10;100.00
28448;BME280;15675;52.870;-1.416;2023-04-21T02:55:21;101274.81;;;9.00;100.00
28448;BME280;15675;52.870;-1.416;2023-04-21T02:57:47;101267.41;;;9.20;100.00
28448;BME280;15675;52.870;-1.416;2023-04-21T03:00:13;101276.47;;;8.96;100.00
28448;BME280;15675;52.870;-1.416;2023-04-21T03:02:39;101272.38;;;9.07;100.00
28448;BME280;15675;52.870;-1.416;2023-04-21T03:05:05;101266.88;;;8.90;100.00
28448;BME280;15675;52.870;-1.416;2023-04-21T03:07:31;101267.44;;;9.21;100.00
28448;BME280;15675;52.870;-1.416;2023-04-21T03:09:57;101250.63;;;8.99;100.00
28448;BME280;15675;52.870;-1.416;2023-04-21T03:12:22;101250.88;;;9.13;100.00
28448;BME280;15675;52.870;-1.416;2023-04-21T03:14:48;101256.00;;;9.08;100.00
28448;BME280;15675;52.870;-1.416;2023-04-21T03:17:13;101256.78;;;9.04;100.00
28448;BME280;15675;52.870;-1.416;2023-04-21T03:19:39;101258.06;;;8.82;100.00
28448;BME280;15675;52.870;-1.416;2023-04-21T03:22:05;101256.44;;;8.86;100.00
28448;BME280;15675;52.870;-1.416;2023-04-21T03:24:31;101246.38;;;9.01;100.00
28448;BME280;15675;52.870;-1.416;2023-04-21T03:26:56;101251.81;;;9.17;100.00
28448;BME280;15675;52.870;-1.416;2023-04-21T03:29:22;101260.22;;;9.05;100.00
28448;BME280;15675;52.870;-1.416;2023-04-21T03:31:48;101246.13;;;8.89;100.00
28448;BME280;15675;52.870;-1.416;2023-04-21T03:34:13;101246.69;;;9.18;100.00
28448;BME280;15675;52.870;-1.416;2023-04-21T03:36:39;101238.91;;;9.18;100.00
28448;BME280;15675;52.870;-1.416;2023-04-21T03:39:04;101233.13;;;8.86;100.00
28448;BME280;15675;52.870;-1.416;2023-04-21T03:41:32;101236.16;;;9.10;100.00
28448;BME280;15675;52.870;-1.416;2023-04-21T03:43:57;101220.00;;;8.76;100.00
28448;BME280;15675;52.870;-1.416;2023-04-21T03:46:23;101210.16;;;9.04;100.00
28448;BME280;15675;52.870;-1.416;2023-04-21T03:48:49;101208.22;;;8.91;100.00
28448;BME280;15675;52.870;-1.416;2023-04-21T03:51:14;101202.50;;;9.10;100.00
28448;BME280;15675;52.870;-1.416;2023-04-21T03:53:40;101192.28;;;9.18;100.00
28448;BME280;15675;52.870;-1.416;2023-04-21T03:56:06;101187.13;;;9.20;100.00
28448;BME280;15675;52.870;-1.416;2023-04-21T03:58:33;101172.28;;;9.09;100.00
28448;BME280;15675;52.870;-1.416;2023-04-21T04:00:59;101160.97;;;9.06;100.00
28448;BME280;15675;52.870;-1.416;2023-04-21T04:03:24;101154.16;;;9.09;100.00
28448;BME280;15675;52.870;-1.416;2023-04-21T04:05:50;101146.41;;;9.11;100.00
28448;BME280;15675;52.870;-1.416;2023-04-21T04:08:15;101143.53;;;8.94;100.00
28448;BME280;15675;52.870;-1.416;2023-04-21T04:10:41;101130.66;;;8.98;100.00
28448;BME280;15675;52.870;-1.416;2023-04-21T04:13:06;101129.06;;;9.05;100.00
28448;BME280;15675;52.870;-1.416;2023-04-21T04:15:32;101118.47;;;8.91;100.00
28448;BME280;15675;52.870;-1.416;2023-04-21T04:17:57;101113.81;;;9.24;100.00
28448;BME280;15675;52.870;-1.416;2023-04-21T04:20:23;101097.03;;;9.58;100.00
28448;BME280;15675;52.870;-1.416;2023-04-21T04:22:48;101092.69;;;9.59;100.00
28448;BME280;15675;52.870;-1.416;2023-04-21T04:25:14;101093.69;;;9.67;100.00
28448;BME280;15675;52.870;-1.416;2023-04-21T04:27:42;101089.97;;;9.46;100.00
28448;BME280;15675;52.870;-1.416;2023-04-21T04:30:09;101063.78;;;9.26;100.00
28448;BME280;15675;52.870;-1.416;2023-04-21T04:32:35;101058.22;;;9.66;100.00
28448;BME280;15675;52.870;-1.416;2023-04-21T04:35:07;101055.34;;;9.43;100.00
28448;BME280;15675;52.870;-1.416;2023-04-21T04:37:35;101053.81;;;9.57;100.00
28448;BME280;15675;52.870;-1.416;2023-04-21T04:40:01;101048.78;;;9.68;100.00
28448;BME280;15675;52.870;-1.416;2023-04-21T04:42:26;101038.53;;;9.79;100.00
28448;BME280;15675;52.870;-1.416;2023-04-21T04:44:53;101033.28;;;9.74;100.00
28448;BME280;15675;52.870;-1.416;2023-04-21T04:47:19;101033.19;;;9.65;100.00
28448;BME280;15675;52.870;-1.416;2023-04-21T04:49:44;101033.03;;;9.54;100.00
28448;BME280;15675;52.870;-1.416;2023-04-21T04:52:10;101027.16;;;9.67;100.00
28448;BME280;15675;52.870;-1.416;2023-04-21T04:54:35;101022.88;;;9.70;100.00
28448;BME280;15675;52.870;-1.416;2023-04-21T04:57:01;101019.06;;;9.43;100.00
28448;BME280;15675;52.870;-1.416;2023-04-21T04:59:27;101018.19;;;9.41;100.00
28448;BME280;15675;52.870;-1.416;2023-04-21T05:01:52;101015.59;;;9.41;100.00
28448;BME280;15675;52.870;-1.416;2023-04-21T05:04:18;100999.88;;;9.28;100.00
28448;BME280;15675;52.870;-1.416;2023-04-21T05:06:44;100998.59;;;9.64;100.00
28448;BME280;15675;52.870;-1.416;2023-04-21T05:09:09;100997.63;;;9.55;100.00
28448;BME280;15675;52.870;-1.416;2023-04-21T05:11:35;100994.16;;;9.53;100.00
28448;BME280;15675;52.870;-1.416;2023-04-21T05:14:00;100989.53;;;9.28;100.00
28448;BME280;15675;52.870;-1.416;2023-04-21T05:16:26;100995.13;;;9.62;100.00
28448;BME280;15675;52.870;-1.416;2023-04-21T05:18:51;100989.25;;;9.77;100.00
28448;BME280;15675;52.870;-1.416;2023-04-21T05:21:26;100995.94;;;9.58;100.00
28448;BME280;15675;52.870;-1.416;2023-04-21T05:23:56;100992.44;;;9.56;100.00
28448;BME280;15675;52.870;-1.416;2023-04-21T05:26:22;100988.09;;;9.50;100.00
28448;BME280;15675;52.870;-1.416;2023-04-21T05:28:48;100983.03;;;9.61;100.00
28448;BME280;15675;52.870;-1.416;2023-04-21T05:31:13;100988.16;;;9.58;100.00
28448;BME280;15675;52.870;-1.416;2023-04-21T05:33:39;100997.25;;;9.25;100.00
28448;BME280;15675;52.870;-1.416;2023-04-21T05:36:08;100985.19;;;9.29;100.00
28448;BME280;15675;52.870;-1.416;2023-04-21T05:38:35;100980.59;;;9.75;100.00
28448;BME280;15675;52.870;-1.416;2023-04-21T05:41:01;100984.75;;;9.59;100.00
28448;BME280;15675;52.870;-1.416;2023-04-21T05:43:26;100977.78;;;9.57;100.00
28448;BME280;15675;52.870;-1.416;2023-04-21T05:45:52;100966.50;;;9.52;100.00
28448;BME280;15675;52.870;-1.416;2023-04-21T05:48:17;100978.56;;;9.48;100.00
28448;BME280;15675;52.870;-1.416;2023-04-21T05:50:43;100988.00;;;9.46;100.00
28448;BME280;15675;52.870;-1.416;2023-04-21T05:53:09;101001.13;;;9.57;100.00
28448;BME280;15675;52.870;-1.416;2023-04-21T05:55:35;101000.09;;;9.44;100.00
28448;BME280;15675;52.870;-1.416;2023-04-21T05:58:00;101004.47;;;9.48;100.00
28448;BME280;15675;52.870;-1.416;2023-04-21T06:00:26;101000.09;;;9.45;100.00
28448;BME280;15675;52.870;-1.416;2023-04-21T06:02:52;100994.53;;;9.85;100.00
28448;BME280;15675;52.870;-1.416;2023-04-21T06:05:17;100984.84;;;9.68;100.00
28448;BME280;15675;52.870;-1.416;2023-04-21T06:07:43;100979.75;;;9.76;100.00
28448;BME280;15675;52.870;-1.416;2023-04-21T06:10:09;100962.06;;;10.27;100.00
28448;BME280;15675;52.870;-1.416;2023-04-21T06:12:35;100952.16;;;10.83;100.00
28448;BME280;15675;52.870;-1.416;2023-04-21T06:15:01;100947.41;;;10.28;100.00
28448;BME280;15675;52.870;-1.416;2023-04-21T06:17:27;100934.47;;;10.32;100.00
28448;BME280;15675;52.870;-1.416;2023-04-21T06:19:52;100933.84;;;10.61;100.00
28448;BME280;15675;52.870;-1.416;2023-04-21T06:22:19;100939.63;;;10.28;100.00
28448;BME280;15675;52.870;-1.416;2023-04-21T06:24:45;100932.50;;;10.07;100.00
28448;BME280;15675;52.870;-1.416;2023-04-21T06:27:11;100923.63;;;9.81;100.00
28448;BME280;15675;52.870;-1.416;2023-04-21T06:29:37;100923.34;;;10.46;100.00
28448;BME280;15675;52.870;-1.416;2023-04-21T06:32:03;100935.41;;;10.39;100.00
28448;BME280;15675;52.870;-1.416;2023-04-21T06:34:29;100932.72;;;10.33;100.00
28448;BME280;15675;52.870;-1.416;2023-04-21T06:36:55;100942.47;;;10.59;100.00
28448;BME280;15675;52.870;-1.416;2023-04-21T06:39:20;100931.88;;;10.32;100.00
28448;BME280;15675;52.870;-1.416;2023-04-21T06:41:46;100922.34;;;10.31;100.00
28448;BME280;15675;52.870;-1.416;2023-04-21T06:44:11;100912.59;;;10.02;100.00
28448;BME280;15675;52.870;-1.416;2023-04-21T06:46:40;100909.13;;;10.00;100.00
28448;BME280;15675;52.870;-1.416;2023-04-21T06:49:09;100899.63;;;10.06;100.00
28448;BME280;15675;52.870;-1.416;2023-04-21T06:51:35;100882.91;;;9.73;100.00
28448;BME280;15675;52.870;-1.416;2023-04-21T06:54:03;100892.75;;;10.08;100.00
28448;BME280;15675;52.870;-1.416;2023-04-21T06:56:30;100879.69;;;9.95;100.00
28448;BME280;15675;52.870;-1.416;2023-04-21T06:58:56;100868.19;;;9.70;100.00
28448;BME280;15675;52.870;-1.416;2023-04-21T07:01:21;100863.13;;;9.81;100.00
28448;BME280;15675;52.870;-1.416;2023-04-21T07:03:49;100863.13;;;9.78;100.00
28448;BME280;15675;52.870;-1.416;2023-04-21T07:06:15;100859.41;;;9.53;100.00
28448;BME280;15675;52.870;-1.416;2023-04-21T07:08:41;100853.25;;;9.43;100.00
28448;BME280;15675;52.870;-1.416;2023-04-21T07:11:06;100865.38;;;9.45;100.00
28448;BME280;15675;52.870;-1.416;2023-04-21T07:13:32;100868.03;;;9.55;100.00
28448;BME280;15675;52.870;-1.416;2023-04-21T07:15:57;100860.94;;;9.33;100.00
28448;BME280;15675;52.870;-1.416;2023-04-21T07:18:23;100867.59;;;9.14;100.00
28448;BME280;15675;52.870;-1.416;2023-04-21T07:20:49;100872.00;;;9.22;100.00
28448;BME280;15675;52.870;-1.416;2023-04-21T07:23:14;100867.94;;;9.44;100.00
28448;BME280;15675;52.870;-1.416;2023-04-21T07:25:40;100848.00;;;9.37;100.00
28448;BME280;15675;52.870;-1.416;2023-04-21T07:28:05;100861.47;;;9.06;100.00
28448;BME280;15675;52.870;-1.416;2023-04-21T07:30:31;100857.47;;;9.33;100.00
28448;BME280;15675;52.870;-1.416;2023-04-21T07:32:57;100852.19;;;9.22;100.00
28448;BME280;15675;52.870;-1.416;2023-04-21T07:35:23;100857.53;;;9.39;100.00
28448;BME280;15675;52.870;-1.416;2023-04-21T07:37:48;100854.09;;;9.43;100.00
28448;BME280;15675;52.870;-1.416;2023-04-21T07:40:14;100851.19;;;9.12;100.00
28448;BME280;15675;52.870;-1.416;2023-04-21T07:42:39;100848.63;;;9.14;100.00
28448;BME280;15675;52.870;-1.416;2023-04-21T07:45:06;100829.31;;;8.87;100.00
28448;BME280;15675;52.870;-1.416;2023-04-21T07:47:32;100828.50;;;8.93;100.00
28448;BME280;15675;52.870;-1.416;2023-04-21T07:49:57;100841.63;;;9.05;100.00
28448;BME280;15675;52.870;-1.416;2023-04-21T07:52:23;100853.69;;;9.05;100.00
28448;BME280;15675;52.870;-1.416;2023-04-21T07:54:49;100855.59;;;9.21;100.00
28448;BME280;15675;52.870;-1.416;2023-04-21T07:57:14;100878.06;;;9.21;100.00
28448;BME280;15675;52.870;-1.416;2023-04-21T07:59:40;100865.94;;;9.20;100.00
28448;BME280;15675;52.870;-1.416;2023-04-21T08:02:06;100858.75;;;8.94;100.00
28448;BME280;15675;52.870;-1.416;2023-04-21T08:04:32;100853.84;;;9.17;100.00
28448;BME280;15675;52.870;-1.416;2023-04-21T08:06:57;100854.69;;;9.18;100.00
28448;BME280;15675;52.870;-1.416;2023-04-21T08:09:23;100864.09;;;9.08;100.00
28448;BME280;15675;52.870;-1.416;2023-04-21T08:11:48;100856.34;;;9.09;100.00
28448;BME280;15675;52.870;-1.416;2023-04-21T08:14:14;100860.44;;;8.93;100.00
28448;BME280;15675;52.870;-1.416;2023-04-21T08:16:40;100858.84;;;9.05;100.00
28448;BME280;15675;52.870;-1.416;2023-04-21T08:19:07;100853.06;;;9.24;100.00
28448;BME280;15675;52.870;-1.416;2023-04-21T08:21:33;100849.81;;;9.44;100.00
28448;BME280;15675;52.870;-1.416;2023-04-21T08:23:59;100850.06;;;8.90;100.00
28448;BME280;15675;52.870;-1.416;2023-04-21T08:26:25;100848.44;;;8.98;100.00
28448;BME280;15675;52.870;-1.416;2023-04-21T08:28:51;100855.59;;;9.18;100.00
28448;BME280;15675;52.870;-1.416;2023-04-21T08:31:18;100843.50;;;9.19;100.00
28448;BME280;15675;52.870;-1.416;2023-04-21T08:33:44;100847.84;;;9.23;100.00
28448;BME280;15675;52.870;-1.416;2023-04-21T08:36:10;100841.09;;;9.37;100.00
28448;BME280;15675;52.870;-1.416;2023-04-21T08:38:41;100845.28;;;9.24;100.00
28448;BME280;15675;52.870;-1.416;2023-04-21T08:41:07;100849.00;;;9.48;100.00
28448;BME280;15675;52.870;-1.416;2023-04-21T08:43:33;100857.47;;;9.35;100.00
28448;BME280;15675;52.870;-1.416;2023-04-21T08:46:01;100847.09;;;9.35;100.00
28448;BME280;15675;52.870;-1.416;2023-04-21T08:48:31;100847.28;;;9.50;100.00
28448;BME280;15675;52.870;-1.416;2023-04-21T08:51:00;100831.56;;;9.33;100.00
28448;BME280;15675;52.870;-1.416;2023-04-21T08:53:26;100826.41;;;9.36;100.00
28448;BME280;15675;52.870;-1.416;2023-04-21T08:55:54;100842.09;;;9.52;100.00
28448;BME280;15675;52.870;-1.416;2023-04-21T08:58:20;100839.31;;;9.33;100.00
28448;BME280;15675;52.870;-1.416;2023-04-21T09:00:50;100841.31;;;9.59;100.00
28448;BME280;15675;52.870;-1.416;2023-04-21T09:03:25;100832.63;;;9.50;100.00
28448;BME280;15675;52.870;-1.416;2023-04-21T09:06:04;100836.03;;;9.48;100.00
28448;BME280;15675;52.870;-1.416;2023-04-21T09:08:31;100837.06;;;9.65;100.00
28448;BME280;15675;52.870;-1.416;2023-04-21T09:10:58;100833.44;;;9.46;100.00
28448;BME280;15675;52.870;-1.416;2023-04-21T09:13:35;100829.25;;;9.61;100.00
28448;BME280;15675;52.870;-1.416;2023-04-21T09:16:13;100826.84;;;9.81;100.00
28448;BME280;15675;52.870;-1.416;2023-04-21T09:18:39;100832.69;;;9.61;100.00
28448;BME280;15675;52.870;-1.416;2023-04-21T09:21:11;100820.72;;;9.74;100.00
28448;BME280;15675;52.870;-1.416;2023-04-21T09:23:56;100823.63;;;10.14;100.00
28448;BME280;15675;52.870;-1.416;2023-04-21T09:26:22;100826.88;;;9.89;100.00
28448;BME280;15675;52.870;-1.416;2023-04-21T09:28:49;100815.53;;;9.76;100.00
28448;BME280;15675;52.870;-1.416;2023-04-21T09:31:17;100822.47;;;9.74;100.00
28448;BME280;15675;52.870;-1.416;2023-04-21T09:33:45;100817.25;;;9.69;100.00
28448;BME280;15675;52.870;-1.416;2023-04-21T09:36:23;100820.69;;;9.70;100.00
28448;BME280;15675;52.870;-1.416;2023-04-21T09:38:54;100819.06;;;9.81;100.00
28448;BME280;15675;52.870;-1.416;2023-04-21T09:41:22;100808.44;;;9.53;100.00
28448;BME280;15675;52.870;-1.416;2023-04-21T09:43:47;100823.28;;;9.70;100.00
28448;BME280;15675;52.870;-1.416;2023-04-21T09:46:16;100820.72;;;9.74;100.00
28448;BME280;15675;52.870;-1.416;2023-04-21T09:48:43;100823.56;;;10.00;100.00
28448;BME280;15675;52.870;-1.416;2023-04-21T09:51:11;100824.41;;;9.99;100.00
28448;BME280;15675;52.870;-1.416;2023-04-21T09:53:38;100818.94;;;9.68;100.00
28448;BME280;15675;52.870;-1.416;2023-04-21T09:56:12;100825.06;;;9.77;100.00
28448;BME280;15675;52.870;-1.416;2023-04-21T09:58:51;100823.41;;;9.85;100.00
28448;BME280;15675;52.870;-1.416;2023-04-21T10:01:18;100812.97;;;9.76;100.00
28448;BME280;15675;52.870;-1.416;2023-04-21T10:03:44;100825.22;;;9.94;100.00
28448;BME280;15675;52.870;-1.416;2023-04-21T10:06:11;100807.56;;;9.51;100.00
28448;BME280;15675;52.870;-1.416;2023-04-21T10:08:38;100807.72;;;9.66;100.00
28448;BME280;15675;52.870;-1.416;2023-04-21T10:11:04;100818.31;;;9.97;100.00
28448;BME280;15675;52.870;-1.416;2023-04-21T10:13:31;100820.84;;;9.87;100.00
28448;BME280;15675;52.870;-1.416;2023-04-21T10:16:01;100817.28;;;9.77;100.00
28448;BME280;15675;52.870;-1.416;2023-04-21T10:18:28;100821.69;;;9.87;100.00
28448;BME280;15675;52.870;-1.416;2023-04-21T10:21:00;100824.22;;;9.78;100.00
28448;BME280;15675;52.870;-1.416;2023-04-21T10:23:48;100820.97;;;10.02;100.00
28448;BME280;15675;52.870;-1.416;2023-04-21T10:26:17;100825.34;;;10.11;100.00
28448;BME280;15675;52.870;-1.416;2023-04-21T10:28:56;100816.63;;;10.01;100.00
28448;BME280;15675;52.870;-1.416;2023-04-21T10:39:29;100817.59;;;10.14;100.00
28448;BME280;15675;52.870;-1.416;2023-04-21T10:49:57;100788.44;;;10.53;100.00
28448;BME280;15675;52.870;-1.416;2023-04-21T10:52:32;100794.41;;;10.39;100.00
28448;BME280;15675;52.870;-1.416;2023-04-21T10:57:24;100771.84;;;10.28;100.00
28448;BME280;15675;52.870;-1.416;2023-04-21T10:59:49;100777.22;;;10.59;100.00
28448;BME280;15675;52.870;-1.416;2023-04-21T11:02:16;100771.13;;;10.45;100.00
28448;BME280;15675;52.870;-1.416;2023-04-21T11:04:43;100777.16;;;10.48;100.00
28448;BME280;15675;52.870;-1.416;2023-04-21T11:09:45;100766.09;;;10.86;100.00
28448;BME280;15675;52.870;-1.416;2023-04-21T11:12:14;100772.13;;;10.88;100.00
28448;BME280;15675;52.870;-1.416;2023-04-21T11:14:41;100762.47;;;10.49;100.00
28448;BME280;15675;52.870;-1.416;2023-04-21T11:17:15;100752.91;;;10.39;100.00
28448;BME280;15675;52.870;-1.416;2023-04-21T11:19:44;100740.91;;;10.62;100.00
28448;BME280;15675;52.870;-1.416;2023-04-21T11:22:10;100750.44;;;10.76;100.00
28448;BME280;15675;52.870;-1.416;2023-04-21T11:24:35;100747.00;;;10.72;100.00
28448;BME280;15675;52.870;-1.416;2023-04-21T11:27:01;100744.50;;;11.04;100.00
28448;BME280;15675;52.870;-1.416;2023-04-21T11:29:27;100753.22;;;11.37;100.00
28448;BME280;15675;52.870;-1.416;2023-04-21T11:31:55;100749.72;;;11.32;100.00
28448;BME280;15675;52.870;-1.416;2023-04-21T11:34:25;100738.50;;;11.47;100.00
28448;BME280;15675;52.870;-1.416;2023-04-21T11:36:51;100735.84;;;11.19;100.00
28448;BME280;15675;52.870;-1.416;2023-04-21T11:39:17;100735.03;;;11.36;100.00
28448;BME280;15675;52.870;-1.416;2023-04-21T11:41:47;100738.44;;;11.21;100.00
28448;BME280;15675;52.870;-1.416;2023-04-21T11:44:29;100740.19;;;11.28;100.00
28448;BME280;15675;52.870;-1.416;2023-04-21T11:46:55;100741.94;;;11.45;100.00
28448;BME280;15675;52.870;-1.416;2023-04-21T11:49:24;100735.00;;;11.28;100.00
28448;BME280;15675;52.870;-1.416;2023-04-21T11:51:49;100744.53;;;11.52;100.00
28448;BME280;15675;52.870;-1.416;2023-04-21T11:54:16;100737.63;;;11.40;100.00
28448;BME280;15675;52.870;-1.416;2023-04-21T11:56:46;100754.09;;;11.49;100.00
28448;BME280;15675;52.870;-1.416;2023-04-21T11:59:14;100737.59;;;11.50;100.00
28448;BME280;15675;52.870;-1.416;2023-04-21T12:01:50;100754.97;;;11.60;100.00
28448;BME280;15675;52.870;-1.416;2023-04-21T12:04:25;100741.94;;;11.58;100.00
28448;BME280;15675;52.870;-1.416;2023-04-21T12:07:00;100740.22;;;11.56;100.00
28448;BME280;15675;52.870;-1.416;2023-04-21T12:09:26;100745.38;;;11.30;100.00
28448;BME280;15675;52.870;-1.416;2023-04-21T12:11:55;100743.66;;;11.19;100.00
28448;BME280;15675;52.870;-1.416;2023-04-21T12:14:32;100748.88;;;11.50;100.00
28448;BME280;15675;52.870;-1.416;2023-04-21T12:16:58;100737.59;;;11.17;100.00
28448;BME280;15675;52.870;-1.416;2023-04-21T12:19:41;100741.94;;;11.32;100.00
28448;BME280;15675;52.870;-1.416;2023-04-21T12:22:07;100746.25;;;11.39;100.00
28448;BME280;15675;52.870;-1.416;2023-04-21T12:24:34;100750.59;;;11.30;100.00
28448;BME280;15675;52.870;-1.416;2023-04-21T12:27:00;100741.94;;;11.31;100.00
28448;BME280;15675;52.870;-1.416;2023-04-21T12:29:26;100752.34;;;11.49;100.00
28448;BME280;15675;52.870;-1.416;2023-04-21T12:31:52;100746.28;;;11.69;100.00
28448;BME280;15675;52.870;-1.416;2023-04-21T12:34:18;100749.75;;;11.83;100.00
28448;BME280;15675;52.870;-1.416;2023-04-21T12:36:43;100734.13;;;11.71;100.00
28448;BME280;15675;52.870;-1.416;2023-04-21T12:39:09;100749.72;;;11.72;100.00
28448;BME280;15675;52.870;-1.416;2023-04-21T12:41:35;100733.28;;;11.86;100.00
28448;BME280;15675;52.870;-1.416;2023-04-21T12:44:00;100734.16;;;11.63;100.00
28448;BME280;15675;52.870;-1.416;2023-04-21T12:46:27;100740.19;;;11.68;100.00
28448;BME280;15675;52.870;-1.416;2023-04-21T12:48:52;100746.28;;;11.58;100.00
28448;BME280;15675;52.870;-1.416;2023-04-21T12:51:18;100748.88;;;11.64;100.00
28448;BME280;15675;52.870;-1.416;2023-04-21T12:53:43;100739.34;;;11.60;100.00
28448;BME280;15675;52.870;-1.416;2023-04-21T12:56:10;100742.81;;;11.67;100.00
28448;BME280;15675;52.870;-1.416;2023-04-21T12:58:35;100741.94;;;11.65;100.00